sensor_id;sensor_type;location;lat;lon;timestamp;temperature;humidity
18721;DHT22;9489;50.948;3.114;2022-09-14T00:00:55;17.70;99.90
18721;DHT22;9489;50.948;3.114;2022-09-14T00:03:21;17.70;99.90
18721;DHT22;9489;50.948;3.114;2022-09-14T00:05:47;17.70;99.90
18721;DHT22;9489;50.948;3.114;2022-09-14T00:08:13;17.70;99.90
18721;DHT22;9489;50.948;3.114;2022-09-14T00:10:44;17.70;99.90
18721;DHT22;9489;50.948;3.114;2022-09-14T00:13:12;17.70;99.90
18721;DHT22;9489;50.948;3.114;2022-09-14T00:15:39;17.60;99.90
18721;DHT22;9489;50.948;3.114;2022-09-14T00:18:07;17.60;99.90
18721;DHT22;9489;50.948;3.114;2022-09-14T00:20:34;17.60;99.90
18721;DHT22;9489;50.948;3.114;2022-09-14T00:23:00;17.70;99.90
18721;DHT22;9489;50.948;3.114;2022-09-14T00:25:26;17.70;99.90
18721;DHT22;9489;50.948;3.114;2022-09-14T00:27:53;17.60;99.90
18721;DHT22;9489;50.948;3.114;2022-09-14T00:30:19;17.70;99.90
18721;DHT22;9489;50.948;3.114;2022-09-14T00:32:45;17.70;99.90
18721;DHT22;9489;50.948;3.114;2022-09-14T00:35:10;17.70;99.90
18721;DHT22;9489;50.948;3.114;2022-09-14T00:37:36;17.60;99.90
18721;DHT22;9489;50.948;3.114;2022-09-14T00:40:04;17.60;99.90
18721;DHT22;9489;50.948;3.114;2022-09-14T00:42:30;17.60;99.90
18721;DHT22;9489;50.948;3.114;2022-09-14T00:45:06;17.50;99.90
18721;DHT22;9489;50.948;3.114;2022-09-14T00:47:33;17.50;99.90
18721;DHT22;9489;50.948;3.114;2022-09-14T00:49:59;17.50;99.90
18721;DHT22;9489;50.948;3.114;2022-09-14T00:52:29;17.40;99.90
18721;DHT22;9489;50.948;3.114;2022-09-14T00:54:57;17.40;99.90
18721;DHT22;9489;50.948;3.114;2022-09-14T00:57:27;17.40;99.90
18721;DHT22;9489;50.948;3.114;2022-09-14T00:59:53;17.40;99.90
18721;DHT22;9489;50.948;3.114;2022-09-14T01:02:21;17.40;99.90
18721;DHT22;9489;50.948;3.114;2022-09-14T01:04:48;17.40;99.90
18721;DHT22;9489;50.948;3.114;2022-09-14T01:18:26;17.40;99.90
18721;DHT22;9489;50.948;3.114;2022-09-14T01:21:18;17.40;99.90
18721;DHT22;9489;50.948;3.114;2022-09-14T01:32:16;17.30;99.90
18721;DHT22;9489;50.948;3.114;2022-09-14T01:34:47;17.40;99.90
18721;DHT22;9489;50.948;3.114;2022-09-14T01:37:20;17.30;99.90
18721;DHT22;9489;50.948;3.114;2022-09-14T01:39:52;17.30;99.90
18721;DHT22;9489;50.948;3.114;2022-09-14T01:42:21;17.30;99.90
18721;DHT22;9489;50.948;3.114;2022-09-14T01:44:54;17.20;99.90
18721;DHT22;9489;50.948;3.114;2022-09-14T01:47:34;17.20;99.90
18721;DHT22;9489;50.948;3.114;2022-09-14T01:50:10;17.20;99.90
18721;DHT22;9489;50.948;3.114;2022-09-14T01:52:45;17.20;99.90
18721;DHT22;9489;50.948;3.114;2022-09-14T01:55:19;17.20;99.90
18721;DHT22;9489;50.948;3.114;2022-09-14T01:58:00;17.20;99.90
18721;DHT22;9489;50.948;3.114;2022-09-14T02:00:27;17.20;99.90
18721;DHT22;9489;50.948;3.114;2022-09-14T02:03:00;17.10;99.90
18721;DHT22;9489;50.948;3.114;2022-09-14T02:08:15;17.20;99.90
18721;DHT22;9489;50.948;3.114;2022-09-14T02:10:41;17.20;99.90
18721;DHT22;9489;50.948;3.114;2022-09-14T02:13:07;17.30;99.90
18721;DHT22;9489;50.948;3.114;2022-09-14T02:15:35;17.20;99.90
18721;DHT22;9489;50.948;3.114;2022-09-14T02:18:02;17.20;99.90
18721;DHT22;9489;50.948;3.114;2022-09-14T02:20:34;17.20;99.90
18721;DHT22;9489;50.948;3.114;2022-09-14T02:23:02;17.30;99.90
18721;DHT22;9489;50.948;3.114;2022-09-14T02:25:27;17.30;99.90
18721;DHT22;9489;50.948;3.114;2022-09-14T02:27:53;17.30;99.90
18721;DHT22;9489;50.948;3.114;2022-09-14T02:30:19;17.20;99.90
18721;DHT22;9489;50.948;3.114;2022-09-14T02:35:50;17.10;99.90
18721;DHT22;9489;50.948;3.114;2022-09-14T02:41:17;17.10;99.90
18721;DHT22;9489;50.948;3.114;2022-09-14T02:43:58;17.10;99.90
18721;DHT22;9489;50.948;3.114;2022-09-14T02:49:19;17.20;99.90
18721;DHT22;9489;50.948;3.114;2022-09-14T02:52:12;17.20;99.90
18721;DHT22;9489;50.948;3.114;2022-09-14T02:54:59;17.20;99.90
18721;DHT22;9489;50.948;3.114;2022-09-14T02:57:27;17.10;99.90
18721;DHT22;9489;50.948;3.114;2022-09-14T02:59:53;17.10;99.90
18721;DHT22;9489;50.948;3.114;2022-09-14T03:02:19;17.10;99.90
18721;DHT22;9489;50.948;3.114;2022-09-14T03:04:45;17.10;99.90
18721;DHT22;9489;50.948;3.114;2022-09-14T03:07:10;17.20;99.90
18721;DHT22;9489;50.948;3.114;2022-09-14T03:09:36;17.20;99.90
18721;DHT22;9489;50.948;3.114;2022-09-14T03:12:02;17.10;99.90
18721;DHT22;9489;50.948;3.114;2022-09-14T03:14:28;17.10;99.90
18721;DHT22;9489;50.948;3.114;2022-09-14T03:16:53;17.10;99.90
18721;DHT22;9489;50.948;3.114;2022-09-14T03:19:19;17.10;99.90
18721;DHT22;9489;50.948;3.114;2022-09-14T03:21:44;17.10;99.90
18721;DHT22;9489;50.948;3.114;2022-09-14T03:24:10;17.00;99.90
18721;DHT22;9489;50.948;3.114;2022-09-14T03:26:36;17.00;99.90
18721;DHT22;9489;50.948;3.114;2022-09-14T03:29:04;17.00;99.90
18721;DHT22;9489;50.948;3.114;2022-09-14T03:31:30;16.90;99.90
18721;DHT22;9489;50.948;3.114;2022-09-14T03:33:58;16.90;99.90
18721;DHT22;9489;50.948;3.114;2022-09-14T03:36:26;16.90;99.90
18721;DHT22;9489;50.948;3.114;2022-09-14T03:38:54;16.80;99.90
18721;DHT22;9489;50.948;3.114;2022-09-14T03:41:21;16.80;99.90
18721;DHT22;9489;50.948;3.114;2022-09-14T03:43:47;16.70;99.90
18721;DHT22;9489;50.948;3.114;2022-09-14T03:46:15;16.60;99.90
18721;DHT22;9489;50.948;3.114;2022-09-14T03:48:42;16.60;99.90
18721;DHT22;9489;50.948;3.114;2022-09-14T03:51:10;16.60;99.90
18721;DHT22;9489;50.948;3.114;2022-09-14T03:53:36;16.60;99.90
18721;DHT22;9489;50.948;3.114;2022-09-14T03:56:14;16.60;99.90
18721;DHT22;9489;50.948;3.114;2022-09-14T03:58:41;16.60;99.90
18721;DHT22;9489;50.948;3.114;2022-09-14T04:01:09;16.60;99.90
18721;DHT22;9489;50.948;3.114;2022-09-14T04:03:35;16.60;99.90
18721;DHT22;9489;50.948;3.114;2022-09-14T04:06:02;16.60;99.90
18721;DHT22;9489;50.948;3.114;2022-09-14T04:08:35;16.70;99.90
18721;DHT22;9489;50.948;3.114;2022-09-14T04:11:17;16.60;99.90
18721;DHT22;9489;50.948;3.114;2022-09-14T04:13:44;16.50;99.90
18721;DHT22;9489;50.948;3.114;2022-09-14T04:16:10;16.50;99.90
18721;DHT22;9489;50.948;3.114;2022-09-14T04:18:36;16.50;99.90
18721;DHT22;9489;50.948;3.114;2022-09-14T04:21:07;16.40;99.90
18721;DHT22;9489;50.948;3.114;2022-09-14T04:23:34;16.50;99.90
18721;DHT22;9489;50.948;3.114;2022-09-14T04:26:00;16.60;99.90
18721;DHT22;9489;50.948;3.114;2022-09-14T04:28:26;16.50;99.90
18721;DHT22;9489;50.948;3.114;2022-09-14T04:30:59;16.50;99.90
18721;DHT22;9489;50.948;3.114;2022-09-14T04:33:29;16.50;99.90
18721;DHT22;9489;50.948;3.114;2022-09-14T04:36:00;16.40;99.90
18721;DHT22;9489;50.948;3.114;2022-09-14T04:38:29;16.40;99.90
18721;DHT22;9489;50.948;3.114;2022-09-14T04:40:56;16.40;99.90
18721;DHT22;9489;50.948;3.114;2022-09-14T04:43:22;16.40;99.90
18721;DHT22;9489;50.948;3.114;2022-09-14T04:45:48;16.40;99.90
18721;DHT22;9489;50.948;3.114;2022-09-14T04:48:14;16.40;99.90
18721;DHT22;9489;50.948;3.114;2022-09-14T04:50:40;16.40;99.90
18721;DHT22;9489;50.948;3.114;2022-09-14T04:53:06;16.30;99.90
18721;DHT22;9489;50.948;3.114;2022-09-14T04:55:32;16.30;99.90
18721;DHT22;9489;50.948;3.114;2022-09-14T04:57:57;16.30;99.90
18721;DHT22;9489;50.948;3.114;2022-09-14T05:00:23;16.30;99.90
18721;DHT22;9489;50.948;3.114;2022-09-14T05:02:48;16.30;99.90
18721;DHT22;9489;50.948;3.114;2022-09-14T05:05:14;16.40;99.90
18721;DHT22;9489;50.948;3.114;2022-09-14T05:07:40;16.40;99.90
18721;DHT22;9489;50.948;3.114;2022-09-14T05:10:06;16.40;99.90
18721;DHT22;9489;50.948;3.114;2022-09-14T05:12:33;16.30;99.90
18721;DHT22;9489;50.948;3.114;2022-09-14T05:14:58;16.30;99.90
18721;DHT22;9489;50.948;3.114;2022-09-14T05:17:24;16.20;99.90
18721;DHT22;9489;50.948;3.114;2022-09-14T05:19:50;16.20;99.90
18721;DHT22;9489;50.948;3.114;2022-09-14T05:22:15;16.10;99.90
18721;DHT22;9489;50.948;3.114;2022-09-14T05:24:42;16.10;99.90
18721;DHT22;9489;50.948;3.114;2022-09-14T05:27:07;16.10;99.90
18721;DHT22;9489;50.948;3.114;2022-09-14T05:29:33;16.10;99.90
18721;DHT22;9489;50.948;3.114;2022-09-14T05:31:59;16.10;99.90
18721;DHT22;9489;50.948;3.114;2022-09-14T05:34:25;16.10;99.90
18721;DHT22;9489;50.948;3.114;2022-09-14T05:36:50;16.10;99.90
18721;DHT22;9489;50.948;3.114;2022-09-14T05:39:16;16.10;99.90
18721;DHT22;9489;50.948;3.114;2022-09-14T05:41:41;16.10;99.90
18721;DHT22;9489;50.948;3.114;2022-09-14T05:44:07;16.10;99.90
18721;DHT22;9489;50.948;3.114;2022-09-14T05:46:33;16.10;99.90
18721;DHT22;9489;50.948;3.114;2022-09-14T05:48:59;16.10;99.90
18721;DHT22;9489;50.948;3.114;2022-09-14T05:51:25;16.10;99.90
18721;DHT22;9489;50.948;3.114;2022-09-14T05:53:53;16.20;99.90
18721;DHT22;9489;50.948;3.114;2022-09-14T05:56:20;16.20;99.90
18721;DHT22;9489;50.948;3.114;2022-09-14T05:58:47;16.20;99.90
18721;DHT22;9489;50.948;3.114;2022-09-14T06:01:19;16.20;99.90
18721;DHT22;9489;50.948;3.114;2022-09-14T06:03:46;16.20;99.90
18721;DHT22;9489;50.948;3.114;2022-09-14T06:06:14;16.20;99.90
18721;DHT22;9489;50.948;3.114;2022-09-14T06:08:40;16.20;99.90
18721;DHT22;9489;50.948;3.114;2022-09-14T06:11:09;16.20;99.90
18721;DHT22;9489;50.948;3.114;2022-09-14T06:13:35;16.20;99.90
18721;DHT22;9489;50.948;3.114;2022-09-14T06:16:03;16.20;99.90
18721;DHT22;9489;50.948;3.114;2022-09-14T06:18:32;16.20;99.90
18721;DHT22;9489;50.948;3.114;2022-09-14T06:20:58;16.20;99.90
18721;DHT22;9489;50.948;3.114;2022-09-14T06:23:26;16.20;99.90
18721;DHT22;9489;50.948;3.114;2022-09-14T06:25:53;16.20;99.90
18721;DHT22;9489;50.948;3.114;2022-09-14T06:28:19;16.20;99.90
18721;DHT22;9489;50.948;3.114;2022-09-14T06:30:45;16.20;99.90
18721;DHT22;9489;50.948;3.114;2022-09-14T06:33:10;16.30;99.90
18721;DHT22;9489;50.948;3.114;2022-09-14T06:35:36;16.30;99.90
18721;DHT22;9489;50.948;3.114;2022-09-14T06:38:02;16.30;99.90
18721;DHT22;9489;50.948;3.114;2022-09-14T06:40:28;16.30;99.90
18721;DHT22;9489;50.948;3.114;2022-09-14T06:42:53;16.30;99.90
18721;DHT22;9489;50.948;3.114;2022-09-14T06:45:19;16.30;99.90
18721;DHT22;9489;50.948;3.114;2022-09-14T06:47:45;16.40;99.90
18721;DHT22;9489;50.948;3.114;2022-09-14T06:50:10;16.40;99.90
18721;DHT22;9489;50.948;3.114;2022-09-14T06:52:36;16.40;99.90
18721;DHT22;9489;50.948;3.114;2022-09-14T06:55:02;16.40;99.90
18721;DHT22;9489;50.948;3.114;2022-09-14T06:57:28;16.50;99.90
18721;DHT22;9489;50.948;3.114;2022-09-14T06:59:53;16.50;99.90
18721;DHT22;9489;50.948;3.114;2022-09-14T07:02:19;16.40;99.90
18721;DHT22;9489;50.948;3.114;2022-09-14T07:04:44;16.50;99.90
18721;DHT22;9489;50.948;3.114;2022-09-14T07:07:10;16.50;99.90
18721;DHT22;9489;50.948;3.114;2022-09-14T07:09:38;16.40;99.90
18721;DHT22;9489;50.948;3.114;2022-09-14T07:12:04;16.40;99.90
18721;DHT22;9489;50.948;3.114;2022-09-14T07:14:30;16.40;99.90
18721;DHT22;9489;50.948;3.114;2022-09-14T07:16:55;16.40;99.90
18721;DHT22;9489;50.948;3.114;2022-09-14T07:19:21;16.50;99.90
18721;DHT22;9489;50.948;3.114;2022-09-14T07:21:47;16.50;99.90
18721;DHT22;9489;50.948;3.114;2022-09-14T07:24:14;16.50;99.90
18721;DHT22;9489;50.948;3.114;2022-09-14T07:26:41;16.40;99.90
18721;DHT22;9489;50.948;3.114;2022-09-14T07:29:13;16.40;99.90
18721;DHT22;9489;50.948;3.114;2022-09-14T07:31:43;16.30;99.90
18721;DHT22;9489;50.948;3.114;2022-09-14T07:34:10;16.30;99.90
18721;DHT22;9489;50.948;3.114;2022-09-14T07:36:37;16.30;99.90
18721;DHT22;9489;50.948;3.114;2022-09-14T07:39:04;16.30;99.90
18721;DHT22;9489;50.948;3.114;2022-09-14T07:41:31;16.30;99.90
18721;DHT22;9489;50.948;3.114;2022-09-14T07:43:59;16.30;99.90
18721;DHT22;9489;50.948;3.114;2022-09-14T07:46:27;16.30;99.90
18721;DHT22;9489;50.948;3.114;2022-09-14T07:48:57;16.30;99.90
18721;DHT22;9489;50.948;3.114;2022-09-14T07:51:24;16.30;99.90
18721;DHT22;9489;50.948;3.114;2022-09-14T07:53:50;16.30;99.90
18721;DHT22;9489;50.948;3.114;2022-09-14T07:56:16;16.30;99.90
18721;DHT22;9489;50.948;3.114;2022-09-14T07:58:42;16.30;99.90
18721;DHT22;9489;50.948;3.114;2022-09-14T08:01:11;16.30;99.90
18721;DHT22;9489;50.948;3.114;2022-09-14T08:03:39;16.30;99.90
18721;DHT22;9489;50.948;3.114;2022-09-14T08:06:07;16.30;99.90
18721;DHT22;9489;50.948;3.114;2022-09-14T08:08:36;16.40;99.90
18721;DHT22;9489;50.948;3.114;2022-09-14T08:13:41;16.40;99.90
18721;DHT22;9489;50.948;3.114;2022-09-14T08:16:08;16.40;99.90
18721;DHT22;9489;50.948;3.114;2022-09-14T08:18:34;16.50;99.90
18721;DHT22;9489;50.948;3.114;2022-09-14T08:21:05;16.60;99.90
18721;DHT22;9489;50.948;3.114;2022-09-14T08:23:33;16.70;99.90
18721;DHT22;9489;50.948;3.114;2022-09-14T08:26:13;16.60;99.90
18721;DHT22;9489;50.948;3.114;2022-09-14T08:28:39;16.60;99.90
18721;DHT22;9489;50.948;3.114;2022-09-14T08:31:11;16.50;99.90
18721;DHT22;9489;50.948;3.114;2022-09-14T08:33:40;16.60;99.90
18721;DHT22;9489;50.948;3.114;2022-09-14T08:36:07;16.70;99.90
18721;DHT22;9489;50.948;3.114;2022-09-14T08:38:34;16.70;99.90
18721;DHT22;9489;50.948;3.114;2022-09-14T08:41:15;16.70;99.90
18721;DHT22;9489;50.948;3.114;2022-09-14T08:43:42;16.80;99.90
18721;DHT22;9489;50.948;3.114;2022-09-14T08:46:33;16.80;99.90
18721;DHT22;9489;50.948;3.114;2022-09-14T08:48:59;16.80;99.90
18721;DHT22;9489;50.948;3.114;2022-09-14T08:51:25;16.90;99.90
18721;DHT22;9489;50.948;3.114;2022-09-14T08:53:52;16.90;99.90
18721;DHT22;9489;50.948;3.114;2022-09-14T08:56:23;16.90;99.90
18721;DHT22;9489;50.948;3.114;2022-09-14T08:59:06;16.90;99.90
18721;DHT22;9489;50.948;3.114;2022-09-14T09:04:30;16.90;99.90
18721;DHT22;9489;50.948;3.114;2022-09-14T09:07:13;16.80;99.90
18721;DHT22;9489;50.948;3.114;2022-09-14T09:09:46;16.80;99.90
18721;DHT22;9489;50.948;3.114;2022-09-14T09:12:28;16.90;99.90
18721;DHT22;9489;50.948;3.114;2022-09-14T09:15:00;16.90;99.90
18721;DHT22;9489;50.948;3.114;2022-09-14T09:17:32;16.90;99.90
18721;DHT22;9489;50.948;3.114;2022-09-14T09:20:07;17.00;99.90
18721;DHT22;9489;50.948;3.114;2022-09-14T09:22:47;16.90;99.90
18721;DHT22;9489;50.948;3.114;2022-09-14T09:25:25;16.80;99.90
18721;DHT22;9489;50.948;3.114;2022-09-14T09:28:00;16.80;99.90
18721;DHT22;9489;50.948;3.114;2022-09-14T09:30:28;16.80;99.90
18721;DHT22;9489;50.948;3.114;2022-09-14T09:32:55;16.90;99.90
18721;DHT22;9489;50.948;3.114;2022-09-14T09:35:22;16.90;99.90
18721;DHT22;9489;50.948;3.114;2022-09-14T09:37:48;16.90;99.90
18721;DHT22;9489;50.948;3.114;2022-09-14T09:43:30;17.00;99.90
18721;DHT22;9489;50.948;3.114;2022-09-14T09:45:59;16.90;99.90
18721;DHT22;9489;50.948;3.114;2022-09-14T09:48:38;17.00;99.90
18721;DHT22;9489;50.948;3.114;2022-09-14T09:51:27;17.10;99.90
18721;DHT22;9489;50.948;3.114;2022-09-14T09:57:00;17.10;99.90
18721;DHT22;9489;50.948;3.114;2022-09-14T09:59:38;17.00;99.90
18721;DHT22;9489;50.948;3.114;2022-09-14T10:02:28;17.10;99.90
18721;DHT22;9489;50.948;3.114;2022-09-14T10:10:14;17.00;99.90
18721;DHT22;9489;50.948;3.114;2022-09-14T10:12:50;17.00;99.90
18721;DHT22;9489;50.948;3.114;2022-09-14T10:15:23;17.10;99.90
18721;DHT22;9489;50.948;3.114;2022-09-14T10:25:43;17.10;99.90
18721;DHT22;9489;50.948;3.114;2022-09-14T10:28:31;17.10;99.90
18721;DHT22;9489;50.948;3.114;2022-09-14T10:33:40;17.20;99.90
18721;DHT22;9489;50.948;3.114;2022-09-14T10:38:48;17.30;99.90
18721;DHT22;9489;50.948;3.114;2022-09-14T10:52:15;17.30;99.90
18721;DHT22;9489;50.948;3.114;2022-09-14T11:00:18;17.20;99.90
18721;DHT22;9489;50.948;3.114;2022-09-14T11:05:30;17.20;99.90
18721;DHT22;9489;50.948;3.114;2022-09-14T11:16:19;17.20;99.90
18721;DHT22;9489;50.948;3.114;2022-09-14T11:24:39;17.10;99.90
18721;DHT22;9489;50.948;3.114;2022-09-14T11:30:02;17.10;99.90
18721;DHT22;9489;50.948;3.114;2022-09-14T11:32:39;17.20;99.90
18721;DHT22;9489;50.948;3.114;2022-09-14T11:35:43;17.20;99.90
18721;DHT22;9489;50.948;3.114;2022-09-14T11:38:30;17.20;99.90
18721;DHT22;9489;50.948;3.114;2022-09-14T11:44:19;17.20;99.90
18721;DHT22;9489;50.948;3.114;2022-09-14T11:46:57;17.20;99.90
18721;DHT22;9489;50.948;3.114;2022-09-14T11:52:18;17.10;99.90
18721;DHT22;9489;50.948;3.114;2022-09-14T11:54:46;17.20;99.90
18721;DHT22;9489;50.948;3.114;2022-09-14T11:57:22;17.10;99.90
18721;DHT22;9489;50.948;3.114;2022-09-14T11:59:53;17.10;99.90
18721;DHT22;9489;50.948;3.114;2022-09-14T12:02:43;17.10;99.90
18721;DHT22;9489;50.948;3.114;2022-09-14T12:12:55;17.10;99.90
18721;DHT22;9489;50.948;3.114;2022-09-14T12:18:18;17.20;99.90
18721;DHT22;9489;50.948;3.114;2022-09-14T12:21:02;17.20;99.90
18721;DHT22;9489;50.948;3.114;2022-09-14T12:36:02;17.60;99.90
18721;DHT22;9489;50.948;3.114;2022-09-14T12:53:47;17.60;99.90
18721;DHT22;9489;50.948;3.114;2022-09-14T12:59:12;17.60;99.90
18721;DHT22;9489;50.948;3.114;2022-09-14T13:04:43;17.70;99.90
18721;DHT22;9489;50.948;3.114;2022-09-14T13:07:15;17.70;99.90
18721;DHT22;9489;50.948;3.114;2022-09-14T13:09:47;17.70;99.90
18721;DHT22;9489;50.948;3.114;2022-09-14T13:12:18;17.70;99.90
18721;DHT22;9489;50.948;3.114;2022-09-14T13:14:50;17.60;99.90
18721;DHT22;9489;50.948;3.114;2022-09-14T13:17:17;17.50;99.90
18721;DHT22;9489;50.948;3.114;2022-09-14T13:19:53;17.50;99.90
18721;DHT22;9489;50.948;3.114;2022-09-14T13:22:21;17.50;99.90
18721;DHT22;9489;50.948;3.114;2022-09-14T13:24:49;17.40;99.90
18721;DHT22;9489;50.948;3.114;2022-09-14T13:27:28;17.40;99.90
18721;DHT22;9489;50.948;3.114;2022-09-14T13:32:33;17.30;99.90
18721;DHT22;9489;50.948;3.114;2022-09-14T13:35:03;17.30;99.90
18721;DHT22;9489;50.948;3.114;2022-09-14T13:37:29;17.30;99.90
18721;DHT22;9489;50.948;3.114;2022-09-14T13:39:55;17.20;99.90
18721;DHT22;9489;50.948;3.114;2022-09-14T13:42:22;17.20;99.90
18721;DHT22;9489;50.948;3.114;2022-09-14T13:44:49;17.20;99.90
18721;DHT22;9489;50.948;3.114;2022-09-14T13:47:18;17.20;99.90
18721;DHT22;9489;50.948;3.114;2022-09-14T13:49:46;17.30;99.90
18721;DHT22;9489;50.948;3.114;2022-09-14T13:54:48;17.20;99.90
18721;DHT22;9489;50.948;3.114;2022-09-14T13:57:19;17.10;99.90
18721;DHT22;9489;50.948;3.114;2022-09-14T14:02:47;17.20;99.90
18721;DHT22;9489;50.948;3.114;2022-09-14T14:05:25;17.00;99.90
18721;DHT22;9489;50.948;3.114;2022-09-14T14:07:53;17.00;99.90
18721;DHT22;9489;50.948;3.114;2022-09-14T14:10:26;17.00;99.90
18721;DHT22;9489;50.948;3.114;2022-09-14T14:12:52;17.00;99.90
18721;DHT22;9489;50.948;3.114;2022-09-14T14:17:44;17.10;99.90
18721;DHT22;9489;50.948;3.114;2022-09-14T14:23:18;17.00;99.90
18721;DHT22;9489;50.948;3.114;2022-09-14T14:25:53;16.90;99.90
18721;DHT22;9489;50.948;3.114;2022-09-14T14:28:30;17.10;99.90
18721;DHT22;9489;50.948;3.114;2022-09-14T14:30:59;17.00;99.90
18721;DHT22;9489;50.948;3.114;2022-09-14T14:33:27;17.10;99.90
18721;DHT22;9489;50.948;3.114;2022-09-14T14:35:54;17.10;99.90
18721;DHT22;9489;50.948;3.114;2022-09-14T14:38:22;17.00;99.90
18721;DHT22;9489;50.948;3.114;2022-09-14T14:40:50;16.90;99.90
18721;DHT22;9489;50.948;3.114;2022-09-14T14:43:18;16.90;99.90
18721;DHT22;9489;50.948;3.114;2022-09-14T14:45:45;16.80;99.90
18721;DHT22;9489;50.948;3.114;2022-09-14T14:48:12;16.90;99.90
18721;DHT22;9489;50.948;3.114;2022-09-14T14:50:37;17.00;99.90
18721;DHT22;9489;50.948;3.114;2022-09-14T14:53:04;17.00;99.90
18721;DHT22;9489;50.948;3.114;2022-09-14T14:55:31;17.10;99.90
18721;DHT22;9489;50.948;3.114;2022-09-14T14:57:59;17.00;99.90
18721;DHT22;9489;50.948;3.114;2022-09-14T15:00:27;17.00;99.90
18721;DHT22;9489;50.948;3.114;2022-09-14T15:02:54;16.90;99.90
18721;DHT22;9489;50.948;3.114;2022-09-14T15:05:20;17.00;99.90
18721;DHT22;9489;50.948;3.114;2022-09-14T15:07:45;17.00;99.90
18721;DHT22;9489;50.948;3.114;2022-09-14T15:10:15;16.80;99.90
18721;DHT22;9489;50.948;3.114;2022-09-14T15:12:41;16.80;99.90
18721;DHT22;9489;50.948;3.114;2022-09-14T15:15:15;16.80;99.90
18721;DHT22;9489;50.948;3.114;2022-09-14T15:17:41;16.80;99.90
18721;DHT22;9489;50.948;3.114;2022-09-14T15:20:07;16.80;99.90
18721;DHT22;9489;50.948;3.114;2022-09-14T15:22:33;16.90;99.90
18721;DHT22;9489;50.948;3.114;2022-09-14T15:25:01;16.90;99.90
18721;DHT22;9489;50.948;3.114;2022-09-14T15:27:26;16.80;99.90
18721;DHT22;9489;50.948;3.114;2022-09-14T15:29:52;16.90;99.90
18721;DHT22;9489;50.948;3.114;2022-09-14T15:32:17;17.00;99.90
18721;DHT22;9489;50.948;3.114;2022-09-14T15:34:43;17.00;99.90
18721;DHT22;9489;50.948;3.114;2022-09-14T15:37:09;17.00;99.90
18721;DHT22;9489;50.948;3.114;2022-09-14T15:39:34;17.00;99.90
18721;DHT22;9489;50.948;3.114;2022-09-14T15:42:00;17.00;99.90
18721;DHT22;9489;50.948;3.114;2022-09-14T15:44:27;17.00;99.90
18721;DHT22;9489;50.948;3.114;2022-09-14T15:46:54;17.10;99.90
18721;DHT22;9489;50.948;3.114;2022-09-14T15:49:22;17.10;99.90
18721;DHT22;9489;50.948;3.114;2022-09-14T15:51:50;17.10;99.90
18721;DHT22;9489;50.948;3.114;2022-09-14T15:54:17;17.20;99.90
18721;DHT22;9489;50.948;3.114;2022-09-14T15:56:55;17.20;99.90
18721;DHT22;9489;50.948;3.114;2022-09-14T15:59:23;17.30;99.90
18721;DHT22;9489;50.948;3.114;2022-09-14T16:01:49;17.20;99.90
18721;DHT22;9489;50.948;3.114;2022-09-14T16:04:15;17.30;99.90
18721;DHT22;9489;50.948;3.114;2022-09-14T16:06:41;17.40;99.90
18721;DHT22;9489;50.948;3.114;2022-09-14T16:09:09;17.40;99.90
18721;DHT22;9489;50.948;3.114;2022-09-14T16:11:36;17.50;99.90
18721;DHT22;9489;50.948;3.114;2022-09-14T16:14:03;17.30;99.90
18721;DHT22;9489;50.948;3.114;2022-09-14T16:16:30;17.30;99.90
18721;DHT22;9489;50.948;3.114;2022-09-14T16:18:56;17.40;99.90
18721;DHT22;9489;50.948;3.114;2022-09-14T16:21:24;17.40;99.90
18721;DHT22;9489;50.948;3.114;2022-09-14T16:23:54;17.30;99.90
18721;DHT22;9489;50.948;3.114;2022-09-14T16:26:22;17.30;99.90
18721;DHT22;9489;50.948;3.114;2022-09-14T16:28:49;17.40;99.90
18721;DHT22;9489;50.948;3.114;2022-09-14T16:31:17;17.50;99.90
18721;DHT22;9489;50.948;3.114;2022-09-14T16:33:50;17.30;99.90
18721;DHT22;9489;50.948;3.114;2022-09-14T16:36:19;17.30;99.90
18721;DHT22;9489;50.948;3.114;2022-09-14T16:38:45;17.20;99.90
18721;DHT22;9489;50.948;3.114;2022-09-14T16:41:12;17.20;99.90
18721;DHT22;9489;50.948;3.114;2022-09-14T16:43:38;17.10;99.90
18721;DHT22;9489;50.948;3.114;2022-09-14T16:46:05;17.10;99.90
18721;DHT22;9489;50.948;3.114;2022-09-14T16:48:31;17.10;99.90
18721;DHT22;9489;50.948;3.114;2022-09-14T16:50:57;17.10;99.90
18721;DHT22;9489;50.948;3.114;2022-09-14T16:53:23;17.10;99.90
18721;DHT22;9489;50.948;3.114;2022-09-14T16:55:49;17.10;99.90
18721;DHT22;9489;50.948;3.114;2022-09-14T16:58:15;17.10;99.90
18721;DHT22;9489;50.948;3.114;2022-09-14T17:00:40;17.20;99.90
18721;DHT22;9489;50.948;3.114;2022-09-14T17:03:06;17.10;99.90
18721;DHT22;9489;50.948;3.114;2022-09-14T17:05:32;17.20;99.90
18721;DHT22;9489;50.948;3.114;2022-09-14T17:07:57;17.20;99.90
18721;DHT22;9489;50.948;3.114;2022-09-14T17:10:23;17.20;99.90
18721;DHT22;9489;50.948;3.114;2022-09-14T17:12:48;17.10;99.90
18721;DHT22;9489;50.948;3.114;2022-09-14T17:15:14;17.20;99.90
18721;DHT22;9489;50.948;3.114;2022-09-14T17:17:40;17.20;99.90
18721;DHT22;9489;50.948;3.114;2022-09-14T17:20:06;17.20;99.90
18721;DHT22;9489;50.948;3.114;2022-09-14T17:22:32;17.30;99.90
18721;DHT22;9489;50.948;3.114;2022-09-14T17:24:58;17.20;99.90
18721;DHT22;9489;50.948;3.114;2022-09-14T17:27:23;17.20;99.90
18721;DHT22;9489;50.948;3.114;2022-09-14T17:29:49;17.10;99.90
18721;DHT22;9489;50.948;3.114;2022-09-14T17:32:16;17.10;99.90
18721;DHT22;9489;50.948;3.114;2022-09-14T17:34:42;17.00;99.90
18721;DHT22;9489;50.948;3.114;2022-09-14T17:37:07;17.10;99.90
18721;DHT22;9489;50.948;3.114;2022-09-14T17:39:33;17.00;99.90
18721;DHT22;9489;50.948;3.114;2022-09-14T17:41:58;16.90;99.90
18721;DHT22;9489;50.948;3.114;2022-09-14T17:44:24;16.90;99.90
18721;DHT22;9489;50.948;3.114;2022-09-14T17:46:52;16.80;99.90
18721;DHT22;9489;50.948;3.114;2022-09-14T17:49:19;16.90;99.90
18721;DHT22;9489;50.948;3.114;2022-09-14T17:51:45;16.90;99.90
18721;DHT22;9489;50.948;3.114;2022-09-14T17:54:10;16.80;99.90
18721;DHT22;9489;50.948;3.114;2022-09-14T17:56:37;16.90;99.90
18721;DHT22;9489;50.948;3.114;2022-09-14T17:59:05;16.90;99.90
18721;DHT22;9489;50.948;3.114;2022-09-14T18:01:32;16.90;99.90
18721;DHT22;9489;50.948;3.114;2022-09-14T18:04:00;16.90;99.90
18721;DHT22;9489;50.948;3.114;2022-09-14T18:06:29;17.00;99.90
18721;DHT22;9489;50.948;3.114;2022-09-14T18:08:57;16.90;99.90
18721;DHT22;9489;50.948;3.114;2022-09-14T18:11:25;16.90;99.90
18721;DHT22;9489;50.948;3.114;2022-09-14T18:13:51;16.80;99.90
18721;DHT22;9489;50.948;3.114;2022-09-14T18:16:20;16.80;99.90
18721;DHT22;9489;50.948;3.114;2022-09-14T18:18:46;16.90;99.90
18721;DHT22;9489;50.948;3.114;2022-09-14T18:21:12;16.80;99.90
18721;DHT22;9489;50.948;3.114;2022-09-14T18:23:39;16.90;99.90
18721;DHT22;9489;50.948;3.114;2022-09-14T18:26:06;16.80;99.90
18721;DHT22;9489;50.948;3.114;2022-09-14T18:28:34;16.80;99.90
18721;DHT22;9489;50.948;3.114;2022-09-14T18:31:01;16.70;99.90
18721;DHT22;9489;50.948;3.114;2022-09-14T18:33:27;16.70;99.90
18721;DHT22;9489;50.948;3.114;2022-09-14T18:35:54;16.70;99.90